createdAt,value
2018-02-15T00:00:39.242Z,80.56
2018-02-15T00:01:39.228Z,79.80
2018-02-15T00:02:39.193Z,79.43
2018-02-15T00:03:39.184Z,80.46
2018-02-15T00:04:39.151Z,79.61
2018-02-15T00:05:39.168Z,79.80
2018-02-15T00:06:39.120Z,79.71
2018-02-15T00:07:39.107Z,79.80
2018-02-15T00:08:39.091Z,80.18
2018-02-15T00:09:39.045Z,80.08
2018-02-15T00:10:39.046Z,79.99
2018-02-15T00:11:39.017Z,79.80
2018-02-15T00:12:39.012Z,79.94
2018-02-15T00:13:38.984Z,79.80
2018-02-15T00:14:38.965Z,79.90
2018-02-15T00:15:38.921Z,79.24
2018-02-15T00:16:38.907Z,79.80
2018-02-15T00:17:38.870Z,79.90
2018-02-15T00:18:38.863Z,79.90
2018-02-15T00:19:38.831Z,79.90
2018-02-15T00:20:38.860Z,79.52
2018-02-15T00:21:38.802Z,79.90
2018-02-15T00:22:38.794Z,80.37
2018-02-15T00:23:38.762Z,79.52
2018-02-15T00:24:38.727Z,79.99
2018-02-15T00:25:38.749Z,78.99
2018-02-15T00:26:38.679Z,78.80
2018-02-15T00:27:38.683Z,79.18
2018-02-15T00:28:38.664Z,79.43
2018-02-15T00:29:38.638Z,80.04
2018-02-15T00:30:38.621Z,79.71
2018-02-15T00:31:38.596Z,79.71
2018-02-15T00:32:38.577Z,78.80
2018-02-15T00:33:38.561Z,79.18
2018-02-15T00:34:38.520Z,78.76
2018-02-15T00:35:38.504Z,79.09
2018-02-15T00:36:38.462Z,79.47
2018-02-15T00:37:38.471Z,78.86
2018-02-15T00:38:38.430Z,79.66
2018-02-15T00:39:38.443Z,79.80
2018-02-15T00:40:38.398Z,79.80
2018-02-15T00:41:38.408Z,79.47
2018-02-15T00:42:38.379Z,79.37
2018-02-15T00:43:38.309Z,78.86
2018-02-15T00:44:38.425Z,78.61
2018-02-15T00:45:38.280Z,78.71
2018-02-15T00:46:38.257Z,78.80
2018-02-15T00:47:38.226Z,79.28
2018-02-15T00:48:38.214Z,79.47
2018-02-15T00:49:38.188Z,78.80
2018-02-15T00:50:38.172Z,79.33
2018-02-15T00:51:38.133Z,79.47
2018-02-15T00:52:38.137Z,78.42
2018-02-15T00:53:38.143Z,79.37
2018-02-15T00:54:38.069Z,79.09
2018-02-15T00:55:38.051Z,78.80
2018-02-15T00:56:38.031Z,78.80
2018-02-15T00:57:38.021Z,78.95
2018-02-15T00:58:38.008Z,78.61
2018-02-15T00:59:37.990Z,77.20
2018-02-15T01:00:37.962Z,77.58
2018-02-15T01:01:37.974Z,77.48
2018-02-15T01:02:37.913Z,77.67
2018-02-15T01:03:37.903Z,77.58
2018-02-15T01:04:37.895Z,76.82
2018-02-15T01:05:37.875Z,77.39
2018-02-15T01:06:37.840Z,77.20
2018-02-15T01:07:37.814Z,78.23
2018-02-15T01:08:37.768Z,77.95
2018-02-15T01:09:37.768Z,78.61
2018-02-15T01:10:37.740Z,78.42
2018-02-15T01:11:37.714Z,78.67
2018-02-15T01:12:37.685Z,78.23
2018-02-15T01:13:37.701Z,77.95
2018-02-15T01:14:37.679Z,78.01
2018-02-15T01:15:37.628Z,77.91
2018-02-15T01:16:37.646Z,78.58
2018-02-15T01:17:37.583Z,79.18
2018-02-15T01:18:37.605Z,77.82
2018-02-15T01:19:37.532Z,77.76
2018-02-15T01:20:37.513Z,78.01
2018-02-15T01:21:37.507Z,79.33
2018-02-15T01:22:37.520Z,78.86
2018-02-15T01:23:37.459Z,78.48
2018-02-15T01:24:37.504Z,78.71
2018-02-15T01:25:37.394Z,78.01
2018-02-15T01:26:37.407Z,77.15
2018-02-15T01:27:37.408Z,76.82
2018-02-15T01:28:37.342Z,77.72
2018-02-15T01:29:37.365Z,76.72
2018-02-15T01:30:37.301Z,77.01
2018-02-15T01:31:37.266Z,77.29
2018-02-15T01:32:37.270Z,76.91
2018-02-15T01:33:37.350Z,75.96
2018-02-15T01:34:37.221Z,76.15
2018-02-15T01:35:37.231Z,76.82
2018-02-15T01:36:37.178Z,77.01
2018-02-15T01:37:37.156Z,77.01
2018-02-15T01:38:37.162Z,76.82
2018-02-15T01:39:37.337Z,76.06
2018-02-15T01:40:37.165Z,75.21
2018-02-15T01:41:37.105Z,75.96
2018-02-15T01:42:37.100Z,76.06
2018-02-15T01:43:37.023Z,76.53
2018-02-15T01:44:37.060Z,76.91
2018-02-15T01:45:37.051Z,77.01
2018-02-15T01:46:37.002Z,76.72
2018-02-15T01:47:36.967Z,77.48
2018-02-15T01:48:36.973Z,76.72
2018-02-15T01:49:36.928Z,76.06
2018-02-15T01:50:36.893Z,76.53
2018-02-15T01:51:36.936Z,77.01
2018-02-15T01:52:36.884Z,76.25
2018-02-15T01:53:36.845Z,76.91
2018-02-15T01:54:36.829Z,77.39
2018-02-15T01:55:36.803Z,77.58
2018-02-15T01:56:36.807Z,76.44
2018-02-15T01:57:36.791Z,77.29
2018-02-15T01:58:36.816Z,76.72
2018-02-15T01:59:36.711Z,78.05
2018-02-15T02:00:36.759Z,77.76
2018-02-15T02:01:36.653Z,77.67
2018-02-15T02:02:36.647Z,78.52
2018-02-15T02:03:36.625Z,79.09
2018-02-15T02:04:36.677Z,79.18
2018-02-15T02:05:36.608Z,78.71
2018-02-15T02:06:36.678Z,78.14
2018-02-15T02:07:36.593Z,77.01
2018-02-15T02:08:36.554Z,76.91
2018-02-15T02:09:36.591Z,77.48
2018-02-15T02:10:36.521Z,76.82
2018-02-15T02:11:36.451Z,77.01
2018-02-15T02:12:36.464Z,77.39
2018-02-15T02:13:36.470Z,77.10
2018-02-15T02:14:36.470Z,76.25
2018-02-15T02:15:36.382Z,76.82
2018-02-15T02:16:36.369Z,78.14
2018-02-15T02:17:36.363Z,78.33
2018-02-15T02:18:36.287Z,77.20
2018-02-15T02:19:36.353Z,77.10
2018-02-15T02:20:36.357Z,76.53
2018-02-15T02:21:36.325Z,76.15
2018-02-15T02:22:36.251Z,75.78
2018-02-15T02:23:36.194Z,76.44
2018-02-15T02:24:36.261Z,77.20
2018-02-15T02:25:36.309Z,76.34
2018-02-15T02:26:36.158Z,75.68
2018-02-15T02:27:36.078Z,76.44
2018-02-15T02:28:36.054Z,76.25
2018-02-15T02:29:36.062Z,76.06
2018-02-15T02:30:36.088Z,76.91
2018-02-15T02:31:36.261Z,77.10
2018-02-15T02:32:36.759Z,76.91
2018-02-15T02:33:36.403Z,75.68
2018-02-15T02:34:36.474Z,76.15
2018-02-15T02:35:35.946Z,75.49
2018-02-15T02:36:35.960Z,75.59
2018-02-15T02:37:36.091Z,75.12
2018-02-15T02:38:36.085Z,75.87
2018-02-15T02:39:35.899Z,76.82
2018-02-15T02:40:35.880Z,76.53
2018-02-15T02:41:35.845Z,76.44
2018-02-15T02:42:35.955Z,75.59
2018-02-15T02:43:35.806Z,75.96
2018-02-15T02:44:35.874Z,75.59
2018-02-15T02:45:35.936Z,75.12
2018-02-15T02:46:35.802Z,74.83
2018-02-15T02:47:35.705Z,75.12
2018-02-15T02:48:35.686Z,74.83
2018-02-15T02:49:35.683Z,74.83
2018-02-15T02:50:35.744Z,74.74
2018-02-15T02:51:35.622Z,74.93
2018-02-15T02:52:35.588Z,75.21
2018-02-15T02:53:35.635Z,76.06
2018-02-15T02:54:35.588Z,75.31
2018-02-15T02:55:35.524Z,75.21
2018-02-15T02:56:35.565Z,76.15
2018-02-15T02:57:35.476Z,75.96
2018-02-15T02:58:35.626Z,74.93
2018-02-15T02:59:35.492Z,74.45
2018-02-15T03:00:35.499Z,75.02
2018-02-15T03:01:35.463Z,75.12
2018-02-15T03:02:35.350Z,75.02
2018-02-15T03:03:35.376Z,74.74
2018-02-15T03:04:35.357Z,74.93
2018-02-15T03:05:35.463Z,74.83
2018-02-15T03:06:35.483Z,74.74
2018-02-15T03:07:35.543Z,75.59
2018-02-15T03:08:35.312Z,74.74
2018-02-15T03:09:35.283Z,74.07
2018-02-15T03:10:35.228Z,74.36
2018-02-15T03:11:35.366Z,75.12
2018-02-15T03:12:35.159Z,75.96
2018-02-15T03:13:35.178Z,74.93
2018-02-15T03:14:35.156Z,74.74
2018-02-15T03:15:35.150Z,74.74
2018-02-15T03:16:35.082Z,74.36
2018-02-15T03:17:35.049Z,74.45
2018-02-15T03:18:35.012Z,74.83
2018-02-15T03:19:35.085Z,75.31
2018-02-15T03:20:35.114Z,75.21
2018-02-15T03:21:34.995Z,76.25
2018-02-15T03:22:35.263Z,76.63
2018-02-15T03:23:34.930Z,75.96
2018-02-15T03:24:35.031Z,75.21
2018-02-15T03:25:34.934Z,75.55
2018-02-15T03:26:34.876Z,75.59
2018-02-15T03:27:34.915Z,75.40
2018-02-15T03:28:34.796Z,75.40
2018-02-15T03:29:34.828Z,74.64
2018-02-15T03:30:34.792Z,75.21
2018-02-15T03:31:34.793Z,74.17
2018-02-15T03:32:34.728Z,73.88
2018-02-15T03:33:35.260Z,73.98
2018-02-15T03:34:34.718Z,74.93
2018-02-15T03:35:34.670Z,75.02
2018-02-15T03:36:34.782Z,74.55
2018-02-15T03:37:34.606Z,74.17
2018-02-15T03:38:34.606Z,73.32
2018-02-15T03:39:34.596Z,72.66
2018-02-15T03:40:34.521Z,73.79
2018-02-15T03:41:34.561Z,73.13
2018-02-15T03:42:34.533Z,73.60
2018-02-15T03:43:34.552Z,71.90
2018-02-15T03:44:34.433Z,71.71
2018-02-15T03:45:34.510Z,71.42
2018-02-15T03:46:34.442Z,70.67
2018-02-15T03:47:34.508Z,70.76
2018-02-15T03:48:34.417Z,71.71
2018-02-15T03:49:34.439Z,72.94
2018-02-15T03:50:34.376Z,72.94
2018-02-15T03:51:34.434Z,70.57
2018-02-15T03:52:34.423Z,70.67
2018-02-15T03:53:34.331Z,71.14
2018-02-15T03:54:34.302Z,70.76
2018-02-15T03:55:34.312Z,70.86
2018-02-15T03:56:34.222Z,70.76
2018-02-15T03:57:34.312Z,72.09
2018-02-15T03:58:34.161Z,74.17
2018-02-15T03:59:34.212Z,73.60
2018-02-15T04:00:34.185Z,71.71
2018-02-15T04:01:34.158Z,72.66
2018-02-15T04:02:34.109Z,74.83
2018-02-15T04:03:34.093Z,75.59
2018-02-15T04:04:34.206Z,75.78
2018-02-15T04:05:34.254Z,75.68
2018-02-15T04:06:34.077Z,73.98
2018-02-15T04:07:34.135Z,74.64
2018-02-15T04:08:33.946Z,77.01
2018-02-15T04:09:34.036Z,77.10
2018-02-15T04:10:34.002Z,78.52
2018-02-15T04:11:34.019Z,79.28
2018-02-15T04:12:33.877Z,77.67
2018-02-15T04:13:33.873Z,76.02
2018-02-15T04:14:33.887Z,76.50
2018-02-15T04:15:33.826Z,77.10
2018-02-15T04:16:33.801Z,76.34
2018-02-15T04:17:33.826Z,74.64
2018-02-15T04:18:33.849Z,76.25
2018-02-15T04:19:33.884Z,75.87
2018-02-15T04:20:33.769Z,76.82
2018-02-15T04:21:33.801Z,75.59
2018-02-15T04:22:33.661Z,73.98
2018-02-15T04:23:33.778Z,74.74
2018-02-15T04:24:33.618Z,75.59
2018-02-15T04:25:33.737Z,76.63
2018-02-15T04:26:33.640Z,77.76
2018-02-15T04:27:33.574Z,78.14
2018-02-15T04:28:33.573Z,76.91
2018-02-15T04:29:33.529Z,75.40
2018-02-15T04:30:33.500Z,75.21
2018-02-15T04:31:33.531Z,75.78
2018-02-15T04:32:33.551Z,74.55
2018-02-15T04:33:33.727Z,73.98
2018-02-15T04:34:33.529Z,73.98
2018-02-15T04:35:33.520Z,73.69
2018-02-15T04:36:33.427Z,71.80
2018-02-15T04:37:33.395Z,71.42
2018-02-15T04:38:33.389Z,72.28
2018-02-15T04:39:34.235Z,71.90
2018-02-15T04:40:33.529Z,71.80
2018-02-15T04:41:33.438Z,71.42
2018-02-15T04:42:33.331Z,70.57
2018-02-15T04:43:33.409Z,70.95
2018-02-15T04:44:33.209Z,71.71
2018-02-15T04:45:33.289Z,70.76
2018-02-15T04:46:33.376Z,69.72
2018-02-15T04:47:33.334Z,69.53
2018-02-15T04:49:33.111Z,71.42
2018-02-15T04:50:33.057Z,70.01
2018-02-15T04:51:33.082Z,70.95
2018-02-15T04:52:33.091Z,72.18
2018-02-15T04:53:33.147Z,70.48
2018-02-15T04:54:33.028Z,70.67
2018-02-15T04:55:33.028Z,70.01
2018-02-15T04:56:33.099Z,70.10
2018-02-15T04:57:32.905Z,69.44
2018-02-15T04:58:32.930Z,68.87
2018-02-15T04:59:32.831Z,69.63
2018-02-15T05:00:32.844Z,68.59
2018-02-15T05:01:32.834Z,69.63
2018-02-15T05:02:32.822Z,68.87
2018-02-15T05:03:32.751Z,69.53
2018-02-15T05:04:32.752Z,69.44
2018-02-15T05:05:32.762Z,69.72
2018-02-15T05:06:32.765Z,69.34
2018-02-15T05:07:32.733Z,70.39
2018-02-15T05:08:32.663Z,69.06
2018-02-15T05:09:32.737Z,69.53
2018-02-15T05:10:32.622Z,69.53
2018-02-15T05:11:32.579Z,69.82
2018-02-15T05:12:32.579Z,70.29
2018-02-15T05:13:32.524Z,70.67
2018-02-15T05:14:32.544Z,69.91
2018-02-15T05:15:32.544Z,69.06
2018-02-15T05:16:32.490Z,69.25
2018-02-15T05:17:32.525Z,70.10
2018-02-15T05:18:32.422Z,70.01
2018-02-15T05:19:32.395Z,70.67
2018-02-15T05:20:32.373Z,69.25
2018-02-15T05:21:32.360Z,69.82
2018-02-15T05:22:32.334Z,70.48
2018-02-15T05:23:32.324Z,70.95
2018-02-15T05:24:32.293Z,70.10
2018-02-15T05:25:32.280Z,70.39
2018-02-15T05:26:32.267Z,70.57
2018-02-15T05:27:32.228Z,70.95
2018-02-15T05:28:32.209Z,70.76
2018-02-15T05:29:32.187Z,70.48
2018-02-15T05:30:32.193Z,70.76
2018-02-15T05:31:32.164Z,70.76
2018-02-15T05:32:32.120Z,70.76
2018-02-15T05:33:32.104Z,69.91
2018-02-15T05:34:32.082Z,70.48
2018-02-15T05:35:32.078Z,70.57
2018-02-15T05:36:32.040Z,70.67
2018-02-15T05:37:32.021Z,69.91
2018-02-15T05:38:31.998Z,69.82
2018-02-15T05:39:31.973Z,70.29
2018-02-15T05:40:31.966Z,69.63
2018-02-15T05:41:31.928Z,70.76
2018-02-15T05:42:31.915Z,70.39
2018-02-15T05:43:31.892Z,70.29
2018-02-15T05:44:31.883Z,70.67
2018-02-15T05:45:31.848Z,70.95
2018-02-15T05:46:31.818Z,70.76
2018-02-15T05:47:31.815Z,70.57
2018-02-15T05:48:31.770Z,70.67
2018-02-15T05:49:31.757Z,70.67
2018-02-15T05:50:31.738Z,70.10
2018-02-15T05:51:31.712Z,69.91
2018-02-15T05:52:31.708Z,70.10
2018-02-15T05:53:31.674Z,70.67
2018-02-15T05:54:31.681Z,70.57
2018-02-15T05:55:31.629Z,70.39
2018-02-15T05:56:31.610Z,70.39
2018-02-15T05:57:31.589Z,70.95
2018-02-15T05:58:31.610Z,70.29
2018-02-15T05:59:31.570Z,70.57
2018-02-15T06:00:31.553Z,70.67
2018-02-15T06:01:31.516Z,70.39
2018-02-15T06:02:31.487Z,70.67
2018-02-15T06:03:31.461Z,70.57
2018-02-15T06:04:31.500Z,70.29
2018-02-15T06:05:31.471Z,69.34
2018-02-15T06:06:31.439Z,69.34
2018-02-15T06:07:31.398Z,69.06
2018-02-15T06:08:31.366Z,69.63
2018-02-15T06:09:31.355Z,68.68
2018-02-15T06:10:31.311Z,68.96
2018-02-15T06:11:31.298Z,69.82
2018-02-15T06:12:31.269Z,69.91
2018-02-15T06:13:31.254Z,70.29
2018-02-15T06:14:31.224Z,69.91
2018-02-15T06:15:31.237Z,70.95
2018-02-15T06:16:31.196Z,70.76
2018-02-15T06:17:31.206Z,70.86
2018-02-15T06:18:31.161Z,70.48
2018-02-15T06:19:31.132Z,69.72
2018-02-15T06:20:31.113Z,68.68
2018-02-15T06:21:31.089Z,69.91
2018-02-15T06:22:31.062Z,70.29
2018-02-15T06:23:31.039Z,69.63
2018-02-15T06:24:31.021Z,68.68
2018-02-15T06:25:30.996Z,69.25
2018-02-15T06:26:30.985Z,69.44
2018-02-15T06:27:30.957Z,69.34
2018-02-15T06:28:30.938Z,69.72
2018-02-15T06:29:30.909Z,70.29
2018-02-15T06:30:30.897Z,69.82
2018-02-15T06:31:30.868Z,70.01
2018-02-15T06:32:30.853Z,69.34
2018-02-15T06:33:30.832Z,69.34
2018-02-15T06:34:30.804Z,69.34
2018-02-15T06:35:30.786Z,70.57
2018-02-15T06:36:30.772Z,70.20
2018-02-15T06:37:30.741Z,70.67
2018-02-15T06:38:30.727Z,69.82
2018-02-15T06:39:30.718Z,69.53
2018-02-15T06:40:30.696Z,69.53
2018-02-15T06:41:30.657Z,69.63
2018-02-15T06:42:30.648Z,69.44
2018-02-15T06:43:30.612Z,69.34
2018-02-15T06:44:30.598Z,69.25
2018-02-15T06:45:30.573Z,68.87
2018-02-15T06:46:30.557Z,70.67
2018-02-15T06:47:30.532Z,71.23
2018-02-15T06:48:30.518Z,70.86
2018-02-15T06:49:30.489Z,69.53
2018-02-15T06:50:30.474Z,70.10
2018-02-15T06:51:30.474Z,69.44
2018-02-15T06:52:30.422Z,68.96
2018-02-15T06:53:30.413Z,69.63
2018-02-15T06:54:30.385Z,69.53
2018-02-15T06:55:30.359Z,69.72
2018-02-15T06:56:30.340Z,68.68
2018-02-15T06:57:30.340Z,68.96
2018-02-15T06:58:30.295Z,69.25
2018-02-15T06:59:30.269Z,69.06
2018-02-15T07:00:30.265Z,68.96
2018-02-15T07:01:30.234Z,68.49
2018-02-15T07:02:30.222Z,68.59
2018-02-15T07:03:30.201Z,68.49
2018-02-15T07:04:30.170Z,68.24
2018-02-15T07:05:30.155Z,68.33
2018-02-15T07:06:30.138Z,69.91
2018-02-15T07:07:30.105Z,69.63
2018-02-15T07:08:30.087Z,69.72
2018-02-15T07:09:30.078Z,69.34
2018-02-15T07:10:30.042Z,69.34
2018-02-15T07:11:30.029Z,68.77
2018-02-15T07:12:30.007Z,69.15
2018-02-15T07:13:29.987Z,69.53
2018-02-15T07:14:29.960Z,69.25
2018-02-15T07:15:29.937Z,69.44
2018-02-15T07:16:29.922Z,69.15
2018-02-15T07:17:29.891Z,69.34
2018-02-15T07:18:29.868Z,68.68
2018-02-15T07:19:29.848Z,68.77
2018-02-15T07:20:29.832Z,68.02
2018-02-15T07:21:29.807Z,68.21
2018-02-15T07:22:29.790Z,68.90
2018-02-15T07:23:29.770Z,68.52
2018-02-15T07:24:29.737Z,69.38
2018-02-15T07:25:29.720Z,69.47
2018-02-15T07:26:29.701Z,69.38
2018-02-15T07:27:29.675Z,69.38
2018-02-15T07:28:29.662Z,68.33
2018-02-15T07:29:29.637Z,68.62
2018-02-15T07:30:29.621Z,68.81
2018-02-15T07:31:29.592Z,68.81
2018-02-15T07:32:29.576Z,67.39
2018-02-15T07:33:29.560Z,67.68
2018-02-15T07:34:29.534Z,67.49
2018-02-15T07:35:29.508Z,68.71
2018-02-15T07:36:29.492Z,68.05
2018-02-15T07:37:29.473Z,68.52
2018-02-15T07:38:29.471Z,67.49
2018-02-15T07:39:29.440Z,67.11
2018-02-15T07:40:29.406Z,67.77
2018-02-15T07:41:29.386Z,68.52
2018-02-15T07:42:29.380Z,67.86
2018-02-15T07:43:29.354Z,67.86
2018-02-15T07:44:29.319Z,68.15
2018-02-15T07:45:29.304Z,67.49
2018-02-15T07:46:29.284Z,68.33
2018-02-15T07:47:29.265Z,67.96
2018-02-15T07:48:29.239Z,67.39
2018-02-15T07:49:29.220Z,67.01
2018-02-15T07:50:29.196Z,66.92
2018-02-15T07:51:29.177Z,66.82
2018-02-15T07:52:29.158Z,67.01
2018-02-15T07:53:29.137Z,68.71
2018-02-15T07:54:29.122Z,68.24
2018-02-15T07:55:29.084Z,67.58
2018-02-15T07:56:29.084Z,67.11
2018-02-15T07:57:29.053Z,66.73
2018-02-15T07:58:29.036Z,67.49
2018-02-15T07:59:29.011Z,66.82
2018-02-15T08:00:28.979Z,67.30
2018-02-15T08:01:28.963Z,66.73
2018-02-15T08:02:28.950Z,66.63
2018-02-15T08:03:28.924Z,67.30
2018-02-15T08:04:28.905Z,67.77
2018-02-15T08:05:28.885Z,67.30
2018-02-15T08:06:28.867Z,66.82
2018-02-15T08:07:28.838Z,68.24
2018-02-15T08:08:28.822Z,68.05
2018-02-15T08:09:28.804Z,67.30
2018-02-15T08:10:28.784Z,68.62
2018-02-15T08:11:28.758Z,69.47
2018-02-15T08:12:28.741Z,69.09
2018-02-15T08:13:28.714Z,69.38
2018-02-15T08:14:28.701Z,68.15
2018-02-15T08:15:28.675Z,67.39
2018-02-15T08:16:28.656Z,68.71
2018-02-15T08:17:28.682Z,67.49
2018-02-15T08:18:28.626Z,68.24
2018-02-15T08:19:28.599Z,68.15
2018-02-15T08:20:28.574Z,68.81
2018-02-15T08:21:28.551Z,68.24
2018-02-15T08:22:28.536Z,67.39
2018-02-15T08:23:28.509Z,67.11
2018-02-15T08:24:28.494Z,67.11
2018-02-15T08:25:28.477Z,67.01
2018-02-15T08:26:28.450Z,67.68
2018-02-15T08:27:28.426Z,67.49
2018-02-15T08:28:28.408Z,67.39
2018-02-15T08:29:28.383Z,67.01
2018-02-15T08:30:28.376Z,67.11
2018-02-15T08:31:28.341Z,66.95
2018-02-15T08:32:28.328Z,66.63
2018-02-15T08:33:28.309Z,67.14
2018-02-15T08:34:28.284Z,67.49
2018-02-15T08:35:28.264Z,68.65
2018-02-15T08:36:28.246Z,69.70
2018-02-15T08:37:28.235Z,69.51
2018-02-15T08:38:28.207Z,69.95
2018-02-15T08:39:28.179Z,70.70
2018-02-15T08:40:28.160Z,70.32
2018-02-15T08:41:28.144Z,70.79
2018-02-15T08:42:28.115Z,71.17
2018-02-15T08:43:28.106Z,71.65
2018-02-15T08:44:28.093Z,73.16
2018-02-15T08:45:28.061Z,74.30
2018-02-15T08:46:28.033Z,75.34
2018-02-15T08:47:28.029Z,74.96
2018-02-15T08:48:27.995Z,74.87
2018-02-15T08:49:27.973Z,75.43
2018-02-15T08:50:27.955Z,76.19
2018-02-15T08:51:27.947Z,78.18
2018-02-15T08:52:27.915Z,79.03
2018-02-15T08:53:27.893Z,79.60
2018-02-15T08:54:27.897Z,79.50
2018-02-15T08:55:27.859Z,80.26
2018-02-15T08:56:27.845Z,81.59
2018-02-15T08:57:27.822Z,81.87
2018-02-15T08:58:27.826Z,82.91
2018-02-15T08:59:27.771Z,84.05
2018-02-15T09:00:27.749Z,83.10
2018-02-15T09:01:27.748Z,83.95
2018-02-15T09:02:27.707Z,84.14
2018-02-15T09:03:27.695Z,84.52
2018-02-15T09:04:27.679Z,84.52
2018-02-15T09:05:27.657Z,85.94
2018-02-15T09:06:27.630Z,86.60
2018-02-15T09:07:27.604Z,86.22
2018-02-15T09:08:27.581Z,86.98
2018-02-15T09:09:27.571Z,87.17
2018-02-15T09:10:27.542Z,86.89
2018-02-15T09:11:27.526Z,88.02
2018-02-15T09:12:27.504Z,88.49
2018-02-15T09:13:27.481Z,88.02
2018-02-15T09:14:27.462Z,88.68
2018-02-15T09:15:27.441Z,89.63
2018-02-15T09:16:27.421Z,89.44
2018-02-15T09:17:27.411Z,89.06
2018-02-15T09:18:27.382Z,88.68
2018-02-15T09:19:27.363Z,89.44
2018-02-15T09:20:27.366Z,88.74
2018-02-15T09:21:27.315Z,88.55
2018-02-15T09:22:27.289Z,89.78
2018-02-15T09:23:27.273Z,90.01
2018-02-15T09:24:27.275Z,90.16
2018-02-15T09:25:27.229Z,90.63
2018-02-15T09:26:27.228Z,89.87
2018-02-15T09:27:27.186Z,91.10
2018-02-15T09:28:27.164Z,91.20
2018-02-15T09:29:27.148Z,91.67
2018-02-15T09:30:27.135Z,91.20
2018-02-15T09:31:27.112Z,91.29
2018-02-15T09:32:27.107Z,91.86
2018-02-15T09:33:27.077Z,92.33
2018-02-15T09:34:27.042Z,92.24
2018-02-15T09:35:27.033Z,93.28
2018-02-15T09:36:27.007Z,91.01
2018-02-15T09:37:26.990Z,91.39
2018-02-15T09:38:26.955Z,91.20
2018-02-15T09:39:26.933Z,90.91
2018-02-15T09:40:26.930Z,90.72
2018-02-15T09:41:26.907Z,91.67
2018-02-15T09:42:26.872Z,90.91
2018-02-15T09:43:26.855Z,91.48
2018-02-15T09:44:26.834Z,91.48
2018-02-15T09:45:26.818Z,91.39
2018-02-15T09:46:26.788Z,91.58
2018-02-15T09:47:26.781Z,91.96
2018-02-15T09:48:26.749Z,92.24
2018-02-15T09:49:26.733Z,92.33
2018-02-15T09:50:26.707Z,93.28
2018-02-15T09:51:26.685Z,93.47
2018-02-15T09:52:26.700Z,93.18
2018-02-15T09:53:26.643Z,92.14
2018-02-15T09:54:26.659Z,92.80
2018-02-15T09:55:26.621Z,92.61
2018-02-15T09:56:26.573Z,92.90
2018-02-15T09:57:26.557Z,93.66
2018-02-15T09:58:26.548Z,94.51
2018-02-15T09:59:26.519Z,94.13
2018-02-15T10:00:26.493Z,94.13
2018-02-15T10:01:26.474Z,94.60
2018-02-15T10:02:26.455Z,94.51
2018-02-15T10:03:26.439Z,93.47
2018-02-15T10:04:26.429Z,93.89
2018-02-15T10:05:26.398Z,95.21
2018-02-15T10:06:26.365Z,95.12
2018-02-15T10:07:26.354Z,95.31
2018-02-15T10:08:26.324Z,95.12
2018-02-15T10:09:26.312Z,95.21
2018-02-15T10:10:26.324Z,95.69
2018-02-15T10:11:26.261Z,95.69
2018-02-15T10:12:26.238Z,96.16
2018-02-15T10:13:26.235Z,96.59
2018-02-15T10:14:26.197Z,96.35
2018-02-15T10:15:26.178Z,97.25
2018-02-15T10:16:26.155Z,96.59
2018-02-15T10:17:26.140Z,97.06
2018-02-15T10:18:26.114Z,97.77
2018-02-15T10:19:26.095Z,97.96
2018-02-15T10:20:26.071Z,97.96
2018-02-15T10:21:26.063Z,98.25
2018-02-15T10:22:26.027Z,97.77
2018-02-15T10:23:26.005Z,96.92
2018-02-15T10:24:26.001Z,96.26
2018-02-15T10:25:25.967Z,95.31
2018-02-15T10:26:25.948Z,95.21
2018-02-15T10:27:25.925Z,95.88
2018-02-15T10:28:25.903Z,95.78
2018-02-15T10:29:25.893Z,95.88
2018-02-15T10:30:25.871Z,94.93
2018-02-15T10:31:25.855Z,94.74
2018-02-15T10:32:25.827Z,95.40
2018-02-15T10:33:25.807Z,96.26
2018-02-15T10:34:25.783Z,96.73
2018-02-15T10:35:25.764Z,96.16
2018-02-15T10:36:25.739Z,95.40
2018-02-15T10:37:25.729Z,95.59
2018-02-15T10:38:25.700Z,97.68
2018-02-15T10:39:25.688Z,97.87
2018-02-15T10:40:25.662Z,97.11
2018-02-15T10:41:25.644Z,97.77
2018-02-15T10:42:25.624Z,97.39
2018-02-15T10:43:25.604Z,97.11
2018-02-15T10:44:25.587Z,97.87
2018-02-15T10:45:25.564Z,98.06
2018-02-15T10:46:25.548Z,97.11
2018-02-15T10:47:25.516Z,97.77
2018-02-15T10:48:25.496Z,98.25
2018-02-15T10:49:25.481Z,99.81
2018-02-15T10:50:25.468Z,99.62
2018-02-15T10:51:25.455Z,98.01
2018-02-15T10:52:25.420Z,97.92
2018-02-15T10:53:25.396Z,97.06
2018-02-15T10:54:25.390Z,97.82
2018-02-15T10:55:25.355Z,98.11
2018-02-15T10:56:25.363Z,97.06
2018-02-15T10:57:25.323Z,97.35
2018-02-15T10:58:25.298Z,97.44
2018-02-15T10:59:25.278Z,98.68
2018-02-15T11:00:25.266Z,97.73
2018-02-15T11:01:25.240Z,97.82
2018-02-15T11:02:25.221Z,98.77
2018-02-15T11:03:25.198Z,99.05
2018-02-15T11:04:25.178Z,97.92
2018-02-15T11:05:25.159Z,98.68
2018-02-15T11:06:25.150Z,98.96
2018-02-15T11:07:25.127Z,99.33
2018-02-15T11:08:25.104Z,98.49
2018-02-15T11:09:25.088Z,99.62
2018-02-15T11:10:25.069Z,99.43
2018-02-15T11:11:25.044Z,99.81
2018-02-15T11:12:25.034Z,99.52
2018-02-15T11:13:25.021Z,98.86
2018-02-15T11:14:24.992Z,99.99
2018-02-15T11:15:24.979Z,99.24
2018-02-15T11:16:24.944Z,99.99
2018-02-15T11:17:24.931Z,99.99
2018-02-15T11:18:24.902Z,99.99
2018-02-15T11:19:24.880Z,99.33
2018-02-15T11:20:24.864Z,99.52
2018-02-15T11:21:24.841Z,99.99
2018-02-15T11:22:24.829Z,99.99
2018-02-15T11:23:24.822Z,99.99
2018-02-15T11:24:24.790Z,99.99
2018-02-15T11:25:24.780Z,99.99
2018-02-15T11:26:24.768Z,99.99
2018-02-15T11:27:24.723Z,99.99
2018-02-15T11:28:24.707Z,99.99
2018-02-15T11:29:24.684Z,99.99
2018-02-15T11:30:24.665Z,99.99
2018-02-15T11:31:24.643Z,99.99
2018-02-15T11:32:24.628Z,99.99
2018-02-15T11:33:24.614Z,99.99
2018-02-15T11:34:24.603Z,99.99
2018-02-15T11:35:24.568Z,99.99
2018-02-15T11:36:24.560Z,99.99
2018-02-15T11:37:24.546Z,99.99
2018-02-15T11:38:24.507Z,99.99
2018-02-15T11:39:24.493Z,99.99
2018-02-15T11:40:24.463Z,99.99
2018-02-15T11:41:24.444Z,99.99
2018-02-15T11:42:24.425Z,99.99
2018-02-15T11:43:24.405Z,99.99
2018-02-15T11:44:24.391Z,99.99
2018-02-15T11:45:24.368Z,99.99
2018-02-15T11:46:24.346Z,99.99
2018-02-15T11:47:24.327Z,99.99
2018-02-15T11:48:24.308Z,99.99
2018-02-15T11:49:24.299Z,99.99
2018-02-15T11:50:24.280Z,99.99
2018-02-15T11:51:24.286Z,99.99
2018-02-15T11:52:24.225Z,99.99
2018-02-15T11:53:24.228Z,99.99
2018-02-15T11:54:24.184Z,99.99
2018-02-15T11:55:24.193Z,99.99
2018-02-15T11:56:24.165Z,99.99
2018-02-15T11:57:24.122Z,99.99
2018-02-15T11:58:24.100Z,99.99
2018-02-15T11:59:24.080Z,99.99
2018-02-15T12:00:24.062Z,99.99
2018-02-15T12:01:24.052Z,99.99
2018-02-15T12:02:24.020Z,99.99
2018-02-15T12:03:24.002Z,99.99
2018-02-15T12:04:23.992Z,99.99
2018-02-15T12:05:23.959Z,99.99
2018-02-15T12:06:23.951Z,99.99
2018-02-15T12:07:23.924Z,99.99
2018-02-15T12:08:23.909Z,99.99
2018-02-15T12:09:23.885Z,99.99
2018-02-15T12:10:23.876Z,99.99
2018-02-15T12:11:23.847Z,99.99
2018-02-15T12:12:23.822Z,99.99
2018-02-15T12:13:23.816Z,99.99
2018-02-15T12:14:23.788Z,99.99
2018-02-15T12:15:23.762Z,99.99
2018-02-15T12:16:23.742Z,99.99
2018-02-15T12:17:23.724Z,99.99
2018-02-15T12:18:23.701Z,99.99
2018-02-15T12:19:23.698Z,99.99
2018-02-15T12:20:23.656Z,99.99
2018-02-15T12:21:23.634Z,99.99
2018-02-15T12:22:23.624Z,99.99
2018-02-15T12:23:23.605Z,99.99
2018-02-15T12:24:23.586Z,99.99
2018-02-15T12:25:23.568Z,99.99
2018-02-15T12:26:23.548Z,99.99
2018-02-15T12:27:23.529Z,99.99
2018-02-15T12:28:23.503Z,99.99
2018-02-15T12:29:23.478Z,99.99
2018-02-15T12:30:23.481Z,99.99
2018-02-15T12:31:23.440Z,99.99
2018-02-15T12:32:23.425Z,99.99
2018-02-15T12:33:23.404Z,99.99
2018-02-15T12:34:23.377Z,99.99
2018-02-15T12:35:23.371Z,99.99
2018-02-15T12:36:23.352Z,99.99
2018-02-15T12:37:23.323Z,99.99
2018-02-15T12:38:23.301Z,99.99
2018-02-15T12:39:23.285Z,99.99
2018-02-15T12:40:23.256Z,99.99
2018-02-15T12:41:23.243Z,99.99
2018-02-15T12:42:23.224Z,99.99
2018-02-15T12:43:23.199Z,99.99
2018-02-15T12:44:23.179Z,99.99
2018-02-15T12:45:23.155Z,99.99
2018-02-15T12:46:23.135Z,99.99
2018-02-15T12:47:23.119Z,99.99
2018-02-15T12:48:23.103Z,99.99
2018-02-15T12:49:23.075Z,99.99
2018-02-15T12:50:23.064Z,99.99
2018-02-15T12:51:23.036Z,99.99
2018-02-15T12:52:23.021Z,99.99
2018-02-15T12:53:23.002Z,99.99